Time;durP1;ratioP1;P1;durP2;ratioP2;P2;SDS_P1;SDS_P2;PMS_P1;PMS_P2;Temp;Humidity;BMP_temperature;BMP_pressure;BME280_temperature;BME280_humidity;BME280_pressure;Samples;Min_cycle;Max_cycle;Signal;HPM_P1;HPM_P2
2024/02/26 00:02:07;;;;;;;;;;;;;;;17.50;50.07;100672.25;5039440;28;1067;-58
2024/02/26 00:04:33;;;;;;;;;;;;;;;16.72;51.73;100669.72;5039291;28;1082;-58
2024/02/26 00:06:58;;;;;;;;;;;;;;;16.26;52.91;100667.00;5039128;28;1222;-58
2024/02/26 00:09:24;;;;;;;;;;;;;;;16.01;53.32;100662.31;5039334;28;1023;-59
2024/02/26 00:11:49;;;;;;;;;;;;;;;15.67;54.22;100669.09;5028242;28;1079;-59
2024/02/26 00:14:15;;;;;;;;;;;;;;;15.55;54.23;100660.28;5036959;28;1970;-58
2024/02/26 00:16:41;;;;;;;;;;;;;;;16.47;52.92;100661.53;5039244;28;1118;-59
2024/02/26 00:19:07;;;;;;;;;;;;;;;17.55;49.82;100652.97;5038988;28;1129;-58
2024/02/26 00:21:32;;;;;;;;;;;;;;;16.50;52.37;100660.97;5039387;28;1263;-59
2024/02/26 00:23:58;;;;;;;;;;;;;;;16.12;52.97;100650.25;5039343;28;1096;-59
2024/02/26 00:26:23;;;;;;;;;;;;;;;15.80;53.75;100656.00;5039137;28;1119;-60
2024/02/26 00:28:49;;;;;;;;;;;;;;;15.76;53.73;100658.41;5038650;28;1146;-60
2024/02/26 00:31:14;;;;;;;;;;;;;;;15.55;54.13;100658.34;5038418;28;1071;-59
2024/02/26 00:33:40;;;;;;;;;;;;;;;16.84;51.61;100655.66;5038929;28;1906;-59
2024/02/26 00:36:06;;;;;;;;;;;;;;;17.60;49.50;100652.97;5038929;28;1083;-59
2024/02/26 00:38:31;;;;;;;;;;;;;;;16.50;52.29;100653.53;5038467;28;1095;-59
2024/02/26 00:40:57;;;;;;;;;;;;;;;16.11;53.24;100654.09;5038999;28;1230;-58
2024/02/26 00:43:22;;;;;;;;;;;;;;;15.94;53.65;100656.28;5037956;28;1110;-58
2024/02/26 00:45:48;;;;;;;;;;;;;;;15.75;53.66;100667.72;5038858;28;1167;-58
2024/02/26 00:48:13;;;;;;;;;;;;;;;15.59;54.12;100658.63;5025340;28;1222;-58
2024/02/26 00:50:39;;;;;;;;;;;;;;;16.99;51.28;100645.81;5038571;28;1122;-58
2024/02/26 00:53:05;;;;;;;;;;;;;;;17.18;50.38;100648.75;5037910;28;1979;-59
2024/02/26 00:55:30;;;;;;;;;;;;;;;16.36;52.36;100642.28;5037883;28;1202;-57
2024/02/26 00:57:56;;;;;;;;;;;;;;;15.95;53.53;100645.03;5038282;28;1035;-58
2024/02/26 01:00:21;;;;;;;;;;;;;;;15.79;53.73;100640.59;5038083;28;1043;-57
2024/02/26 01:02:47;;;;;;;;;;;;;;;15.59;53.80;100644.94;5025001;28;1075;-58
2024/02/26 01:05:13;;;;;;;;;;;;;;;15.90;53.74;100636.78;5038279;28;1115;-58
2024/02/26 01:07:39;;;;;;;;;;;;;;;17.33;50.40;100626.69;5030017;28;1059;-58
2024/02/26 01:10:08;;;;;;;;;;;;;;;16.86;51.21;100626.03;5038331;28;1175;-58
2024/02/26 01:12:34;;;;;;;;;;;;;;;16.21;52.99;100620.34;5037775;28;1153;-59
2024/02/26 01:15:00;;;;;;;;;;;;;;;15.96;53.12;100630.22;5038145;28;1913;-58
2024/02/26 01:17:25;;;;;;;;;;;;;;;15.74;53.46;100617.56;5038300;28;1059;-57
2024/02/26 01:19:51;;;;;;;;;;;;;;;15.66;53.92;100620.81;5037835;28;1122;-57
2024/02/26 01:22:17;;;;;;;;;;;;;;;17.21;50.67;100617.97;5034499;28;1067;-57
2024/02/26 01:24:43;;;;;;;;;;;;;;;16.88;51.33;100618.34;5028405;28;1124;-57
2024/02/26 01:27:09;;;;;;;;;;;;;;;16.28;52.56;100620.91;5037535;28;1226;-57
2024/02/26 01:29:34;;;;;;;;;;;;;;;15.96;53.01;100616.50;5038045;28;1171;-57
2024/02/26 01:32:00;;;;;;;;;;;;;;;15.68;53.69;100624.13;5037719;28;1222;-57
2024/02/26 01:34:25;;;;;;;;;;;;;;;15.58;53.71;100624.09;5037779;28;1906;-57
2024/02/26 01:36:51;;;;;;;;;;;;;;;16.95;51.21;100620.00;5037797;28;1111;-57
2024/02/26 01:39:16;;;;;;;;;;;;;;;17.15;50.41;100617.16;5037738;28;1131;-57
2024/02/26 01:41:42;;;;;;;;;;;;;;;16.35;52.43;100626.94;5037475;28;1209;-57
2024/02/26 01:44:07;;;;;;;;;;;;;;;15.98;53.27;100621.75;5037348;28;1020;-57
2024/02/26 01:46:33;;;;;;;;;;;;;;;15.71;53.82;100623.59;5024250;28;1528;-57
2024/02/26 01:48:59;;;;;;;;;;;;;;;15.58;53.93;100632.31;5037204;28;1099;-57
2024/02/26 01:51:24;;;;;;;;;;;;;;;16.33;53.10;100631.88;5037191;28;1095;-59
2024/02/26 01:53:50;;;;;;;;;;;;;;;17.56;49.76;100627.13;5037123;28;1973;-59
2024/02/26 01:56:15;;;;;;;;;;;;;;;16.61;51.88;100626.91;5032400;28;1098;-59
2024/02/26 01:58:41;;;;;;;;;;;;;;;16.06;53.02;100632.97;5017544;28;1095;-58
2024/02/26 02:01:06;;;;;;;;;;;;;;;15.83;53.73;100631.56;5030808;28;1405;-58
2024/02/26 02:03:32;;;;;;;;;;;;;;;15.64;53.57;100638.63;5028450;28;1108;-58
2024/02/26 02:05:57;;;;;;;;;;;;;;;16.67;52.08;100633.22;5036952;28;1167;-58
2024/02/26 02:08:23;;;;;;;;;;;;;;;17.55;49.43;100631.78;5036495;28;829;-58
2024/02/26 02:10:49;;;;;;;;;;;;;;;16.59;51.88;100637.31;5053511;28;1191;-58
2024/02/26 02:13:14;;;;;;;;;;;;;;;16.10;52.94;100632.44;5037206;28;1976;-58
2024/02/26 02:15:40;;;;;;;;;;;;;;;15.87;53.12;100632.69;5034000;28;1035;-58
2024/02/26 02:18:05;;;;;;;;;;;;;;;15.68;53.63;100629.63;5026211;28;1126;-58
2024/02/26 02:20:34;;;;;;;;;;;;;;;15.81;53.52;100630.19;5036324;28;1174;-58
2024/02/26 02:23:00;;;;;;;;;;;;;;;17.30;50.30;100630.00;5036871;28;1063;-58
2024/02/26 02:25:25;;;;;;;;;;;;;;;16.80;51.34;100634.56;5035913;28;1112;-58
2024/02/26 02:27:51;;;;;;;;;;;;;;;16.23;52.72;100629.16;5036881;28;1176;-58
2024/02/26 02:30:17;;;;;;;;;;;;;;;16.03;53.01;100629.94;5036189;28;1126;-58
2024/02/26 02:32:42;;;;;;;;;;;;;;;15.71;53.62;100625.47;5036015;28;861;-58
2024/02/26 02:35:08;;;;;;;;;;;;;;;15.55;53.88;100630.94;5035976;28;1978;-58
2024/02/26 02:37:33;;;;;;;;;;;;;;;16.70;51.93;100632.66;5036493;28;1067;-58
2024/02/26 02:39:59;;;;;;;;;;;;;;;17.73;49.02;100622.06;5023262;28;1087;-59
2024/02/26 02:42:25;;;;;;;;;;;;;;;16.68;51.64;100623.88;5036960;28;1098;-58
2024/02/26 02:44:51;;;;;;;;;;;;;;;16.21;52.56;100631.34;5035631;28;1075;-58
2024/02/26 02:47:16;;;;;;;;;;;;;;;15.91;53.32;100622.00;5027547;28;1051;-58
2024/02/26 02:49:42;;;;;;;;;;;;;;;15.82;53.20;100620.88;5018386;28;1147;-58
2024/02/26 02:52:07;;;;;;;;;;;;;;;16.21;52.79;100623.09;5036753;28;1095;-59
2024/02/26 02:54:33;;;;;;;;;;;;;;;17.54;49.33;100615.59;5036132;28;1989;-59
2024/02/26 02:56:58;;;;;;;;;;;;;;;16.76;51.25;100620.56;5027931;28;1234;-59
2024/02/26 02:59:24;;;;;;;;;;;;;;;16.26;52.28;100623.09;5030987;28;1095;-59
2024/02/26 03:01:49;;;;;;;;;;;;;;;15.95;53.25;100630.50;5036676;28;1107;-59
2024/02/26 03:04:15;;;;;;;;;;;;;;;15.72;53.47;100624.41;5055155;28;1198;-59
2024/02/26 03:06:40;;;;;;;;;;;;;;;15.56;53.66;100626.28;5036300;28;1031;-60
2024/02/26 03:09:06;;;;;;;;;;;;;;;16.73;51.72;100621.94;5035822;28;1043;-59
2024/02/26 03:11:31;;;;;;;;;;;;;;;17.71;49.15;100634.47;5036398;28;1156;-58
2024/02/26 03:13:57;;;;;;;;;;;;;;;16.62;51.54;100633.22;5036068;28;1905;-58
2024/02/26 03:16:22;;;;;;;;;;;;;;;16.20;52.73;100636.00;5035736;28;1155;-60
2024/02/26 03:18:48;;;;;;;;;;;;;;;15.91;53.21;100633.78;5036184;28;1187;-59
2024/02/26 03:21:13;;;;;;;;;;;;;;;15.84;53.22;100638.72;5035894;28;869;-59
2024/02/26 03:23:39;;;;;;;;;;;;;;;15.57;53.68;100633.41;5038357;28;1158;-59
2024/02/26 03:26:04;;;;;;;;;;;;;;;16.59;51.91;100627.19;5040640;28;1213;-58
2024/02/26 03:28:32;;;;;;;;;;;;;;;17.63;49.25;100633.16;5039634;28;1043;-59
2024/02/26 03:30:58;;;;;;;;;;;;;;;16.58;51.64;100632.97;5039856;28;1166;-59
2024/02/26 03:33:24;;;;;;;;;;;;;;;16.13;52.92;100634.63;5039385;28;1976;-59
2024/02/26 03:35:50;;;;;;;;;;;;;;;15.88;53.06;100628.84;5040135;28;1154;-59
2024/02/26 03:38:15;;;;;;;;;;;;;;;15.64;53.23;100623.03;5039782;28;1092;-58
2024/02/26 03:40:41;;;;;;;;;;;;;;;15.54;53.76;100625.72;5040075;28;1051;-58
2024/02/26 03:43:07;;;;;;;;;;;;;;;17.01;50.91;100622.44;5039412;28;1035;-59
2024/02/26 03:45:33;;;;;;;;;;;;;;;16.88;50.96;100621.09;5039167;28;912;-59
2024/02/26 03:47:58;;;;;;;;;;;;;;;16.18;52.51;100629.94;5040030;28;1079;-59
2024/02/26 03:50:24;;;;;;;;;;;;;;;15.87;53.29;100631.88;5039768;28;1166;-59
2024/02/26 03:52:49;;;;;;;;;;;;;;;15.71;53.42;100629.06;5039312;28;1066;-60
2024/02/26 03:55:15;;;;;;;;;;;;;;;15.59;53.54;100631.22;5039477;28;1985;-60
2024/02/26 03:57:40;;;;;;;;;;;;;;;17.01;50.55;100619.69;5039134;28;1002;-59
2024/02/26 04:00:06;;;;;;;;;;;;;;;17.44;49.21;100625.53;5039670;28;1186;-60
2024/02/26 04:02:36;;;;;;;;;;;;;;;16.48;51.80;100631.06;5039502;28;1154;-59
2024/02/26 04:05:01;;;;;;;;;;;;;;;16.01;52.94;100630.22;5039705;28;1110;-59
2024/02/26 04:07:27;;;;;;;;;;;;;;;15.79;53.32;100630.47;5039320;28;1138;-59
2024/02/26 04:09:52;;;;;;;;;;;;;;;15.62;53.39;100632.63;5039316;28;986;-59
2024/02/26 04:12:18;;;;;;;;;;;;;;;15.58;53.54;100635.06;5039090;28;1137;-59
2024/02/26 04:14:44;;;;;;;;;;;;;;;17.06;50.51;100638.06;5038942;28;1982;-59
2024/02/26 04:17:11;;;;;;;;;;;;;;;17.14;50.09;100636.66;5039097;28;1206;-58
2024/02/26 04:19:36;;;;;;;;;;;;;;;16.29;52.03;100633.53;5038859;28;1075;-58
2024/02/26 04:22:02;;;;;;;;;;;;;;;15.94;52.96;100637.91;5038683;28;913;-58
2024/02/26 04:24:27;;;;;;;;;;;;;;;15.80;53.27;100634.06;5038841;28;1079;-60
2024/02/26 04:26:53;;;;;;;;;;;;;;;15.62;53.59;100638.09;5038704;28;1032;-60
2024/02/26 04:29:18;;;;;;;;;;;;;;;15.90;53.46;100628.56;5038480;28;1091;-60
2024/02/26 04:31:45;;;;;;;;;;;;;;;17.33;49.80;100626.69;5039077;28;1202;-60
2024/02/26 04:34:11;;;;;;;;;;;;;;;17.06;50.47;100625.16;5037780;28;1933;-60
2024/02/26 04:36:36;;;;;;;;;;;;;;;16.40;51.95;100635.16;5038594;28;1157;-60
2024/02/26 04:39:02;;;;;;;;;;;;;;;16.08;52.94;100625.28;5038952;28;1246;-61
2024/02/26 04:41:28;;;;;;;;;;;;;;;15.79;53.12;100624.97;5038863;28;1512;-61
2024/02/26 04:43:53;;;;;;;;;;;;;;;15.67;53.39;100624.38;5038659;28;1063;-61
2024/02/26 04:46:19;;;;;;;;;;;;;;;16.55;51.99;100626.09;5025148;28;864;-59
2024/02/26 04:48:46;;;;;;;;;;;;;;;17.62;48.93;100620.50;5038175;28;1480;-60
2024/02/26 04:51:12;;;;;;;;;;;;;;;16.54;51.70;100631.88;5034742;28;2764;-57
2024/02/26 04:53:37;;;;;;;;;;;;;;;16.15;52.49;100629.69;5033711;28;1989;-58
2024/02/26 04:56:03;;;;;;;;;;;;;;;15.98;53.03;100617.06;5032693;28;1040;-60
2024/02/26 04:58:28;;;;;;;;;;;;;;;15.69;53.35;100617.53;5036660;28;1087;-60
2024/02/26 05:00:54;;;;;;;;;;;;;;;15.59;53.72;100614.78;5036302;28;1335;-60
2024/02/26 05:03:19;;;;;;;;;;;;;;;17.16;50.30;100618.78;5037434;28;1071;-60
2024/02/26 05:05:45;;;;;;;;;;;;;;;17.17;49.96;100625.13;5038298;28;1074;-61
2024/02/26 05:08:11;;;;;;;;;;;;;;;16.38;51.99;100618.16;5030343;28;1031;-61
2024/02/26 05:10:39;;;;;;;;;;;;;;;15.99;53.07;100623.38;5034574;28;927;-61
2024/02/26 05:13:05;;;;;;;;;;;;;;;15.86;53.48;100620.06;5025852;28;1067;-61
2024/02/26 05:15:31;;;;;;;;;;;;;;;17.59;49.25;100619.13;5024959;28;1922;-61
2024/02/26 05:17:56;;;;;;;;;;;;;;;17.01;50.45;100624.34;5037475;28;1165;-58
2024/02/26 05:20:22;;;;;;;;;;;;;;;16.31;51.16;100631.31;5037185;28;2485;-60
2024/02/26 05:22:48;;;;;;;;;;;;;;;16.40;51.48;100634.34;5037018;28;920;-60
2024/02/26 05:25:16;;;;;;;;;;;;;;;17.93;49.00;100639.56;5037572;28;944;-60
2024/02/26 05:27:43;;;;;;;;;;;;;;;16.87;50.46;100640.56;5037779;28;1040;-61
2024/02/26 05:30:09;;;;;;;;;;;;;;;16.31;50.53;100652.47;5038013;28;1031;-60
2024/02/26 05:32:34;;;;;;;;;;;;;;;17.66;49.87;100649.06;5037546;28;1067;-61
2024/02/26 05:35:00;;;;;;;;;;;;;;;17.17;50.22;100656.16;5028434;28;1977;-61
2024/02/26 05:37:25;;;;;;;;;;;;;;;16.60;50.20;100650.78;5020057;28;1135;-61
2024/02/26 05:39:52;;;;;;;;;;;;;;;18.11;48.86;100649.88;5037336;28;1047;-60
2024/02/26 05:42:17;;;;;;;;;;;;;;;17.03;50.50;100657.88;5036932;28;1116;-60
2024/02/26 05:44:42;;;;;;;;;;;;;;;16.66;49.68;100659.84;5037143;28;1051;-60
2024/02/26 05:47:08;;;;;;;;;;;;;;;17.97;49.20;100662.66;5034199;28;1078;-57
2024/02/26 05:49:34;;;;;;;;;;;;;;;16.88;50.43;100664.19;5030093;28;1055;-59
2024/02/26 05:51:59;;;;;;;;;;;;;;;16.58;49.47;100671.38;5033619;28;2705;-59
2024/02/26 05:54:25;;;;;;;;;;;;;;;17.09;50.51;100670.47;5036802;28;1906;-60
2024/02/26 05:56:50;;;;;;;;;;;;;;;17.99;49.40;100663.19;5036583;28;1027;-59
2024/02/26 05:59:16;;;;;;;;;;;;;;;16.90;50.14;100670.25;5036669;28;1067;-59
2024/02/26 06:01:41;;;;;;;;;;;;;;;16.56;49.63;100673.56;5022999;28;1235;-60
2024/02/26 06:04:07;;;;;;;;;;;;;;;17.99;49.73;100665.94;5049416;28;1078;-59
2024/02/26 06:06:32;;;;;;;;;;;;;;;17.00;50.23;100670.25;5031261;28;1103;-61
2024/02/26 06:08:58;;;;;;;;;;;;;;;16.60;49.78;100671.94;5036371;28;1090;-55
2024/02/26 06:11:23;;;;;;;;;;;;;;;17.97;49.84;100670.91;5036444;28;1150;-60
2024/02/26 06:13:49;;;;;;;;;;;;;;;17.21;50.14;100672.94;5036081;28;1981;-61
2024/02/26 06:16:14;;;;;;;;;;;;;;;16.79;50.85;100679.56;5036711;28;1019;-58
2024/02/26 06:18:40;;;;;;;;;;;;;;;18.03;49.36;100675.25;5036319;28;1063;-62
2024/02/26 06:21:08;;;;;;;;;;;;;;;17.06;50.03;100682.84;5033665;28;2841;-57
2024/02/26 06:23:34;;;;;;;;;;;;;;;16.72;49.14;100674.41;5036461;28;1016;-61
2024/02/26 06:25:59;;;;;;;;;;;;;;;18.12;49.36;100668.03;5029616;28;1043;-54
2024/02/26 06:28:25;;;;;;;;;;;;;;;17.39;50.25;100683.28;5030645;28;1244;-56
2024/02/26 06:30:52;;;;;;;;;;;;;;;16.88;49.86;100677.91;5036225;28;1403;-57
2024/02/26 06:33:17;;;;;;;;;;;;;;;16.71;48.83;100678.22;5035710;28;1902;-53
2024/02/26 06:35:44;;;;;;;;;;;;;;;17.19;49.95;100678.69;5036010;28;1128;-59
2024/02/26 06:38:11;;;;;;;;;;;;;;;17.52;50.24;100670.84;5035854;28;1322;-64
2024/02/26 06:40:37;;;;;;;;;;;;;;;16.85;50.23;100690.28;5031721;28;1066;-59
2024/02/26 06:43:02;;;;;;;;;;;;;;;16.68;49.21;100685.09;5034575;28;1545;-61
2024/02/26 06:45:28;;;;;;;;;;;;;;;16.47;48.23;100681.53;5028217;28;1274;-62
2024/02/26 06:47:53;;;;;;;;;;;;;;;17.69;50.00;100680.69;5036929;28;1246;-62
2024/02/26 06:50:19;;;;;;;;;;;;;;;17.28;50.39;100684.44;5035928;28;2418;-63
2024/02/26 06:52:45;;;;;;;;;;;;;;;16.73;50.11;100687.84;5036268;28;1091;-60
2024/02/26 06:55:11;;;;;;;;;;;;;;;16.54;49.07;100689.50;5035774;28;1971;-60
2024/02/26 06:57:36;;;;;;;;;;;;;;;16.42;48.39;100687.03;5035151;28;1238;-59
2024/02/26 07:00:03;;;;;;;;;;;;;;;16.51;48.63;100684.53;5034106;28;1194;-59
2024/02/26 07:02:29;;;;;;;;;;;;;;;17.92;49.81;100679.19;5028326;28;1434;-58
2024/02/26 07:04:56;;;;;;;;;;;;;;;17.09;50.63;100684.22;5027702;28;1069;-58
2024/02/26 07:07:22;;;;;;;;;;;;;;;16.64;49.65;100689.50;5032028;28;1023;-61
2024/02/26 07:09:48;;;;;;;;;;;;;;;16.46;48.68;100685.38;5035358;28;1091;-60
2024/02/26 07:12:13;;;;;;;;;;;;;;;17.33;50.17;100678.91;5035221;28;1167;-59
2024/02/26 07:14:39;;;;;;;;;;;;;;;17.02;50.59;100673.50;5030338;28;1898;-57
2024/02/26 07:17:05;;;;;;;;;;;;;;;16.58;49.82;100676.88;5035804;28;1106;-58
2024/02/26 07:19:30;;;;;;;;;;;;;;;17.53;49.90;100682.66;5035863;28;1047;-57
2024/02/26 07:21:56;;;;;;;;;;;;;;;16.91;50.45;100682.88;5035801;28;2824;-57
2024/02/26 07:24:21;;;;;;;;;;;;;;;16.60;49.76;100682.91;5035368;28;976;-56
2024/02/26 07:26:47;;;;;;;;;;;;;;;16.79;50.02;100679.56;5035680;28;1126;-59
2024/02/26 07:29:12;;;;;;;;;;;;;;;18.25;48.89;100677.56;5032220;28;1183;-58
2024/02/26 07:31:38;;;;;;;;;;;;;;;17.12;50.17;100669.09;5026432;28;1094;-59
2024/02/26 07:34:03;;;;;;;;;;;;;;;16.76;49.27;100668.06;5034923;28;1962;-60
2024/02/26 07:36:29;;;;;;;;;;;;;;;16.45;48.76;100675.50;5028742;28;1471;-59
2024/02/26 07:38:54;;;;;;;;;;;;;;;16.45;48.29;100677.44;5032558;28;1092;-61
2024/02/26 07:41:20;;;;;;;;;;;;;;;17.93;49.51;100680.84;5035832;28;1050;-60
2024/02/26 07:43:45;;;;;;;;;;;;;;;17.19;50.46;100670.44;5035380;28;1004;-61
2024/02/26 07:46:11;;;;;;;;;;;;;;;16.76;49.44;100678.22;5030960;28;1055;-62
2024/02/26 07:48:37;;;;;;;;;;;;;;;16.55;48.45;100664.53;5035370;28;1132;-62
2024/02/26 07:51:03;;;;;;;;;;;;;;;17.13;49.99;100674.31;5035643;28;2606;-62
2024/02/26 07:53:28;;;;;;;;;;;;;;;17.41;50.12;100667.31;5034993;28;1906;-58
2024/02/26 07:55:54;;;;;;;;;;;;;;;16.67;50.20;100668.91;5034196;28;1168;-63
2024/02/26 07:58:19;;;;;;;;;;;;;;;16.47;48.85;100667.81;5033664;28;1078;-61
2024/02/26 08:00:46;;;;;;;;;;;;;;;17.57;49.75;100668.09;5035315;28;1036;-60
2024/02/26 08:03:13;;;;;;;;;;;;;;;18.07;49.16;100675.50;5036006;28;1159;-59
2024/02/26 08:05:39;;;;;;;;;;;;;;;17.14;49.99;100664.13;5035138;28;1087;-58
2024/02/26 08:08:06;;;;;;;;;;;;;;;16.76;49.29;100667.25;5028825;28;1187;-62
2024/02/26 08:10:31;;;;;;;;;;;;;;;17.72;50.09;100675.41;5030034;28;1108;-58
2024/02/26 08:13:04;;;;;;;;;;;;;;;17.34;50.34;100677.81;5039271;28;1117;-60
2024/02/26 08:15:34;;;;;;;;;;;;;;;16.81;49.76;100682.88;5038000;28;1907;-60
2024/02/26 08:18:02;;;;;;;;;;;;;;;16.67;48.56;100672.47;5031050;28;1278;-57
2024/02/26 08:20:28;;;;;;;;;;;;;;;18.15;49.29;100660.34;5029419;28;2463;-60
2024/02/26 08:22:53;;;;;;;;;;;;;;;17.66;49.85;100673.81;5038699;28;1025;-60
2024/02/26 08:25:19;;;;;;;;;;;;;;;17.03;49.70;100668.88;5032637;28;1042;-57
2024/02/26 08:27:44;;;;;;;;;;;;;;;16.83;48.85;100664.19;5019059;28;1129;-58
2024/02/26 08:30:13;;;;;;;;;;;;;;;17.08;49.47;100672.41;5038315;28;1111;-58
2024/02/26 08:32:38;;;;;;;;;;;;;;;16.89;49.69;100674.94;5038521;28;1202;-56
2024/02/26 08:35:04;;;;;;;;;;;;;;;16.67;48.34;100677.13;5028103;28;1899;-60
2024/02/26 08:37:30;;;;;;;;;;;;;;;17.87;49.42;100670.97;5038133;28;1166;-58
2024/02/26 08:39:55;;;;;;;;;;;;;;;17.04;50.03;100686.97;5038680;28;1210;-57
2024/02/26 08:42:24;;;;;;;;;;;;;;;16.66;49.15;100668.09;5038307;28;1110;-58
2024/02/26 08:44:49;;;;;;;;;;;;;;;17.47;49.63;100681.06;5028414;28;1300;-57
2024/02/26 08:47:15;;;;;;;;;;;;;;;18.00;49.21;100678.59;5037905;28;1540;-59
2024/02/26 08:49:46;;;;;;;;;;;;;;;16.99;50.04;100679.56;5038809;28;1052;-59
2024/02/26 08:52:12;;;;;;;;;;;;;;;16.77;48.81;100686.19;5025184;28;2472;-60
2024/02/26 08:54:37;;;;;;;;;;;;;;;16.57;47.98;100686.22;5038499;28;1906;-57
2024/02/26 08:57:03;;;;;;;;;;;;;;;17.30;49.13;100684.16;5038363;28;1024;-62
2024/02/26 08:59:29;;;;;;;;;;;;;;;18.06;49.29;100685.72;5038043;28;1196;-59
2024/02/26 09:01:54;;;;;;;;;;;;;;;17.07;49.95;100680.94;5031534;28;1228;-58
2024/02/26 09:04:20;;;;;;;;;;;;;;;18.30;48.96;100687.75;5031474;28;1024;-58
2024/02/26 09:06:45;;;;;;;;;;;;;;;17.73;49.76;100688.06;5032177;28;1072;-58
2024/02/26 09:09:11;;;;;;;;;;;;;;;17.08;49.60;100688.91;5062965;28;1224;-59
2024/02/26 09:11:36;;;;;;;;;;;;;;;17.88;49.70;100680.81;5024901;28;1197;-58
2024/02/26 09:14:03;;;;;;;;;;;;;;;17.14;49.61;100686.13;5033875;28;1983;-58
2024/02/26 09:16:29;;;;;;;;;;;;;;;16.94;48.68;100685.06;5037651;28;1008;-58
2024/02/26 09:18:54;;;;;;;;;;;;;;;17.79;49.67;100681.47;5037553;28;1296;-58
2024/02/26 09:21:23;;;;;;;;;;;;;;;17.99;49.45;100685.19;5036820;28;2908;-60
2024/02/26 09:23:51;;;;;;;;;;;;;;;17.28;49.40;100681.69;5036702;28;1247;-61
2024/02/26 09:26:16;;;;;;;;;;;;;;;16.91;48.54;100683.72;5037641;28;1187;-58
2024/02/26 09:28:42;;;;;;;;;;;;;;;16.74;47.73;100686.72;5037270;28;1083;-60
2024/02/26 09:31:08;;;;;;;;;;;;;;;17.73;49.14;100679.00;5037613;28;1114;-59
2024/02/26 09:33:33;;;;;;;;;;;;;;;17.38;49.77;100683.56;5037462;28;1913;-56
2024/02/26 09:36:00;;;;;;;;;;;;;;;18.50;48.79;100656.47;5036782;28;1402;-60
2024/02/26 09:38:26;;;;;;;;;;;;;;;17.81;50.63;100675.66;5037413;28;1211;-58
2024/02/26 09:40:51;;;;;;;;;;;;;;;16.67;54.45;100691.69;5036050;28;1015;-58
2024/02/26 09:43:17;;;;;;;;;;;;;;;18.96;48.64;100688.28;5036979;28;1428;-58
2024/02/26 09:45:43;;;;;;;;;;;;;;;15.79;56.23;100685.31;5036233;28;1096;-58
2024/02/26 09:48:08;;;;;;;;;;;;;;;17.79;52.06;100683.38;5037271;28;1024;-58
2024/02/26 09:50:34;;;;;;;;;;;;;;;19.34;47.94;100674.59;5068692;28;2525;-58
2024/02/26 09:53:02;;;;;;;;;;;;;;;15.03;60.11;100681.97;5037449;28;1206;-57
2024/02/26 09:55:28;;;;;;;;;;;;;;;18.64;49.94;100673.94;5036613;28;1973;-57
2024/02/26 09:57:53;;;;;;;;;;;;;;;17.20;52.71;100674.03;5037288;28;1198;-58
2024/02/26 10:00:19;;;;;;;;;;;;;;;16.49;56.13;100670.28;5035662;28;1064;-59
2024/02/26 10:02:45;;;;;;;;;;;;;;;19.01;49.06;100660.63;5036009;28;1138;-58
2024/02/26 10:05:11;;;;;;;;;;;;;;;17.85;50.63;100663.00;5037187;28;1023;-58
2024/02/26 10:07:36;;;;;;;;;;;;;;;17.45;49.97;100660.16;5069160;28;1118;-59
2024/02/26 10:10:02;;;;;;;;;;;;;;;17.31;48.83;100659.13;5022558;28;1208;-57
2024/02/26 10:12:28;;;;;;;;;;;;;;;17.09;48.55;100660.31;5055439;28;1127;-56
2024/02/26 10:14:53;;;;;;;;;;;;;;;16.84;48.12;100657.59;5035710;28;1914;-57
2024/02/26 10:17:19;;;;;;;;;;;;;;;16.74;47.91;100661.19;5036340;28;1000;-57
2024/02/26 10:19:44;;;;;;;;;;;;;;;16.62;47.61;100657.91;5036522;28;1195;-56
2024/02/26 10:22:10;;;;;;;;;;;;;;;16.48;47.42;100657.66;5031513;28;2345;-56
2024/02/26 10:24:36;;;;;;;;;;;;;;;17.83;49.63;100654.19;5031252;28;882;-57
2024/02/26 10:27:01;;;;;;;;;;;;;;;17.07;50.24;100648.78;5036525;28;1063;-59
2024/02/26 10:29:27;;;;;;;;;;;;;;;17.18;50.43;100648.75;5036773;28;1035;-59
2024/02/26 10:31:52;;;;;;;;;;;;;;;17.94;50.53;100646.72;5036168;28;1027;-58
2024/02/26 10:34:18;;;;;;;;;;;;;;;17.12;50.69;100644.38;5034597;28;1975;-57
2024/02/26 10:36:44;;;;;;;;;;;;;;;16.90;49.56;100643.63;5036669;28;1118;-58
2024/02/26 10:39:09;;;;;;;;;;;;;;;16.95;50.12;100645.53;5035968;28;1032;-57
2024/02/26 10:41:35;;;;;;;;;;;;;;;17.85;50.35;100637.41;5035624;28;1019;-59
2024/02/26 10:44:00;;;;;;;;;;;;;;;17.07;50.15;100629.56;5033165;28;1078;-60
2024/02/26 10:46:26;;;;;;;;;;;;;;;16.83;48.85;100631.25;5030997;28;1414;-62
2024/02/26 10:48:52;;;;;;;;;;;;;;;16.70;48.19;100633.47;5034607;28;1336;-62
2024/02/26 10:51:21;;;;;;;;;;;;;;;16.73;47.51;100627.44;5027029;28;1986;-59
2024/02/26 10:53:46;;;;;;;;;;;;;;;16.49;46.99;100629.13;5036155;28;1910;-60
2024/02/26 10:56:12;;;;;;;;;;;;;;;17.18;48.98;100618.50;5021883;28;1369;-61
2024/02/26 10:58:37;;;;;;;;;;;;;;;18.34;49.87;100614.50;5032169;28;1364;-60
2024/02/26 11:01:03;;;;;;;;;;;;;;;17.22;50.49;100616.84;5062742;28;1089;-61
2024/02/26 11:03:28;;;;;;;;;;;;;;;16.89;49.70;100617.25;5034919;28;1187;-60
2024/02/26 11:05:54;;;;;;;;;;;;;;;17.88;50.66;100612.06;5033397;28;1312;-60
2024/02/26 11:08:21;;;;;;;;;;;;;;;17.61;50.79;100616.09;5034336;28;1338;-62
2024/02/26 11:10:48;;;;;;;;;;;;;;;17.08;50.00;100605.63;5022526;28;1380;-62
2024/02/26 11:13:14;;;;;;;;;;;;;;;16.86;48.89;100608.75;5030645;28;1313;-62
2024/02/26 11:15:39;;;;;;;;;;;;;;;16.70;47.86;100606.00;5032692;28;1992;-62
2024/02/26 11:18:05;;;;;;;;;;;;;;;16.53;47.27;100600.03;5034344;28;1398;-62
2024/02/26 11:20:30;;;;;;;;;;;;;;;16.45;46.60;100597.84;5034549;28;2068;-63
2024/02/26 11:22:56;;;;;;;;;;;;;;;16.91;48.22;100600.50;5024833;28;1278;-62
2024/02/26 11:25:21;;;;;;;;;;;;;;;17.22;49.59;100592.13;5025482;28;1379;-63
2024/02/26 11:27:58;;;;;;;;;;;;;;;17.08;50.14;100597.41;5029846;28;1109;-61
2024/02/26 11:30:24;;;;;;;;;;;;;;;18.45;49.58;100599.50;5029772;28;1130;-61
2024/02/26 11:32:50;;;;;;;;;;;;;;;17.32;50.66;100589.34;5034160;28;1428;-61
2024/02/26 11:35:17;;;;;;;;;;;;;;;16.86;50.05;100598.56;5037583;28;1910;-61
2024/02/26 11:37:53;;;;;;;;;;;;;;;16.74;48.93;100585.13;5034260;28;1178;-61
2024/02/26 11:40:19;;;;;;;;;;;;;;;16.64;47.80;100590.66;5032837;28;1250;-60
2024/02/26 11:42:45;;;;;;;;;;;;;;;17.08;48.76;100594.66;5033199;28;1335;-60
2024/02/26 11:45:29;;;;;;;;;;;;;;;16.90;49.50;100604.34;5036783;28;1199;-60
2024/02/26 11:47:58;;;;;;;;;;;;;;;16.52;48.54;100601.94;5034807;28;1298;-57
2024/02/26 11:50:34;;;;;;;;;;;;;;;16.39;47.67;100599.75;5033244;28;2054;-55
2024/02/26 11:53:20;;;;;;;;;;;;;;;16.65;48.20;100597.81;5025978;28;992;-52
2024/02/26 11:55:45;;;;;;;;;;;;;;;17.03;50.19;100584.50;5021600;28;1914;-56
2024/02/26 11:58:11;;;;;;;;;;;;;;;16.63;49.41;100591.75;5037871;28;1182;-58
2024/02/26 12:00:36;;;;;;;;;;;;;;;16.46;48.30;100588.50;5030005;28;1435;-61
2024/02/26 12:03:05;;;;;;;;;;;;;;;16.76;49.09;100593.94;5020090;28;929;-62
2024/02/26 12:05:32;;;;;;;;;;;;;;;16.97;49.88;100585.66;5036869;28;1119;-63
2024/02/26 12:08:03;;;;;;;;;;;;;;;16.52;48.98;100587.38;5039359;28;1032;-63
2024/02/26 12:10:38;;;;;;;;;;;;;;;16.92;49.45;100585.66;5039114;28;977;-62
2024/02/26 12:13:05;;;;;;;;;;;;;;;16.77;49.91;100586.50;5030551;28;909;-61
2024/02/26 12:15:32;;;;;;;;;;;;;;;16.59;48.64;100596.16;5037604;28;1971;-62
2024/02/26 12:17:58;;;;;;;;;;;;;;;16.31;48.77;100581.94;5027227;28;1078;-61
2024/02/26 12:20:24;;;;;;;;;;;;;;;17.90;48.84;100588.66;5038577;28;2473;-62
2024/02/26 12:22:49;;;;;;;;;;;;;;;16.95;49.63;100607.06;5036475;28;1223;-62
2024/02/26 12:25:15;;;;;;;;;;;;;;;16.56;49.16;100592.06;5032358;28;1562;-61
2024/02/26 12:27:41;;;;;;;;;;;;;;;16.49;47.74;100591.50;5038162;28;1190;-59
2024/02/26 12:30:07;;;;;;;;;;;;;;;16.30;47.23;100591.28;5038320;28;1008;-60
2024/02/26 12:32:32;;;;;;;;;;;;;;;16.36;47.38;100583.84;5037409;28;1043;-58
2024/02/26 12:34:58;;;;;;;;;;;;;;;17.63;48.65;100597.41;5037257;28;1984;-59
2024/02/26 12:37:24;;;;;;;;;;;;;;;16.74;49.40;100593.38;5028970;28;872;-61
2024/02/26 12:39:49;;;;;;;;;;;;;;;16.47;48.33;100585.47;5038102;28;1094;-58
2024/02/26 12:42:15;;;;;;;;;;;;;;;16.68;48.71;100586.25;5037673;28;1276;-59